Time;durP1;ratioP1;P1;durP2;ratioP2;P2;SDS_P1;SDS_P2;PMS_P1;PMS_P2;Temp;Humidity;BMP_temperature;BMP_pressure;BME280_temperature;BME280_humidity;BME280_pressure;Samples;Min_cycle;Max_cycle;Signal;HPM_P1;HPM_P2
2023/03/20 00:00:50;;;;;;;14.10;10.90;;;;;;;9.12;60.95;102144.63;106783;1273;22529;-49
2023/03/20 00:03:21;;;;;;;11.90;9.90;;;;;;;9.15;60.97;102138.23;106755;1272;26635;-49
2023/03/20 00:05:50;;;;;;;12.50;10.20;;;;;;;9.16;60.93;102137.38;106821;1271;25411;-48
2023/03/20 00:08:19;;;;;;;12.50;10.60;;;;;;;9.15;60.88;102131.31;106745;1273;25347;-49
2023/03/20 00:10:49;;;;;;;13.50;10.80;;;;;;;9.15;60.97;102130.79;106733;1279;25353;-49
2023/03/20 00:13:23;;;;;;;13.20;10.60;;;;;;;9.15;61.01;102126.63;105869;1275;1002846;-48
2023/03/20 00:15:52;;;;;;;12.70;10.50;;;;;;;9.15;61.08;102127.33;106514;1273;24407;-49
2023/03/20 00:18:23;;;;;;;13.30;10.80;;;;;;;9.15;61.15;102122.13;106736;1272;25374;-49
2023/03/20 00:20:54;;;;;;;12.20;10.90;;;;;;;9.17;61.18;102120.23;106761;1272;25379;-49
2023/03/20 00:23:22;;;;;;;12.40;10.60;;;;;;;9.19;61.03;102120.60;106703;1271;22745;-49
2023/03/20 00:25:52;;;;;;;12.70;10.60;;;;;;;9.21;61.04;102116.45;106811;1273;25325;-49
2023/03/20 00:28:40;;;;;;;12.50;10.60;;;;;;;9.25;60.93;102119.09;106631;1275;25455;-49
2023/03/20 00:31:30;;;;;;;13.00;10.20;;;;;;;9.28;60.88;102119.45;106790;1272;25287;-49
2023/03/20 00:34:00;;;;;;;12.30;9.80;;;;;;;9.27;60.98;102117.38;106854;1272;25404;-49
2023/03/20 00:36:29;;;;;;;13.30;10.50;;;;;;;9.26;60.93;102116.34;106804;1272;22543;-48
2023/03/20 00:39:05;;;;;;;13.60;11.10;;;;;;;9.25;61.04;102110.42;106718;1275;25356;-48
2023/03/20 00:41:41;;;;;;;14.50;10.90;;;;;;;9.24;61.16;102112.33;106792;1273;22546;-51
2023/03/20 00:44:49;;;;;;;12.60;11.10;;;;;;;9.24;61.05;102111.80;106721;1272;24339;-49
2023/03/20 00:47:20;;;;;;;13.30;10.90;;;;;;;9.20;61.22;102110.21;106725;1275;24236;-51
2023/03/20 00:49:50;;;;;;;12.70;10.90;;;;;;;9.18;61.40;102112.98;106828;1273;24261;-50
2023/03/20 00:52:22;;;;;;;12.70;10.40;;;;;;;9.20;61.56;102111.25;106646;1273;25475;-50
2023/03/20 00:54:51;;;;;;;12.80;10.40;;;;;;;9.25;61.48;102109.73;106711;1273;23983;-49
2023/03/20 00:57:29;;;;;;;11.50;9.50;;;;;;;9.25;61.25;102107.32;106798;1272;25246;-50
2023/03/20 01:00:01;;;;;;;11.80;9.30;;;;;;;9.25;61.14;102105.76;106796;1272;22701;-50
2023/03/20 01:02:30;;;;;;;11.60;9.10;;;;;;;9.26;61.09;102096.91;106783;1273;23677;-50
2023/03/20 01:05:00;;;;;;;13.60;10.60;;;;;;;9.27;60.88;102093.83;106712;1272;23262;-49
2023/03/20 01:07:30;;;;;;;11.60;9.60;;;;;;;9.26;60.80;102089.48;106585;1272;26728;-50
2023/03/20 01:09:59;;;;;;;13.20;11.40;;;;;;;9.26;60.68;102088.10;106018;1273;1002965;-50
2023/03/20 01:12:28;;;;;;;16.70;12.50;;;;;;;9.24;60.79;102084.45;106787;1272;25555;-49
2023/03/20 01:14:57;;;;;;;13.60;11.30;;;;;;;9.25;60.97;102084.45;106762;1272;25353;-49
2023/03/20 01:17:26;;;;;;;13.70;11.80;;;;;;;9.26;60.91;102086.02;106467;1275;25523;-49
2023/03/20 01:19:55;;;;;;;11.80;9.60;;;;;;;9.27;60.77;102085.33;105576;1275;1002984;-49
2023/03/20 01:22:24;;;;;;;13.10;10.80;;;;;;;9.28;60.94;102083.26;106396;1275;25414;-49
2023/03/20 01:24:53;;;;;;;12.80;11.20;;;;;;;9.28;60.87;102081.87;106489;1275;24370;-49
2023/03/20 01:27:22;;;;;;;12.90;10.90;;;;;;;9.29;61.00;102081.71;106295;1278;25443;-49
2023/03/20 01:29:51;;;;;;;14.30;11.80;;;;;;;9.30;61.05;102076.69;106518;1275;25300;-49
2023/03/20 01:32:19;;;;;;;16.20;12.80;;;;;;;9.32;61.16;102074.79;106395;1276;23901;-49
2023/03/20 01:34:50;;;;;;;16.80;13.60;;;;;;;9.33;61.14;102072.19;106366;1276;25596;-49
2023/03/20 01:37:24;;;;;;;12.60;10.60;;;;;;;9.35;60.96;102071.67;106422;1282;24550;-49
2023/03/20 01:39:54;;;;;;;10.60;9.10;;;;;;;9.39;60.76;102068.77;106357;1275;27300;-49
2023/03/20 01:42:23;;;;;;;9.90;8.90;;;;;;;9.41;60.48;102065.48;106328;1277;22533;-49
2023/03/20 01:44:52;;;;;;;10.10;9.00;;;;;;;9.39;60.31;102063.90;106469;1278;25291;-49
2023/03/20 01:47:22;;;;;;;10.20;8.70;;;;;;;9.35;60.07;102063.71;106497;1275;25338;-50
2023/03/20 01:50:21;;;;;;;10.10;9.10;;;;;;;9.31;59.99;102061.29;106305;1275;25518;-49
2023/03/20 01:52:59;;;;;;;8.90;7.90;;;;;;;9.30;60.06;102062.14;106507;1275;25234;-49
2023/03/20 01:55:28;;;;;;;11.40;9.10;;;;;;;9.29;60.22;102063.35;106553;1275;22740;-49
2023/03/20 01:58:03;;;;;;;8.70;7.80;;;;;;;9.29;60.02;102065.95;106740;1272;25360;-49
2023/03/20 02:00:33;;;;;;;10.60;8.40;;;;;;;9.26;60.04;102066.63;106811;1269;22641;-49
2023/03/20 02:03:03;;;;;;;10.30;8.60;;;;;;;9.22;59.91;102064.17;106868;1269;22503;-49
2023/03/20 02:05:51;;;;;;;11.40;8.70;;;;;;;9.18;59.98;102065.37;106996;1269;25360;-50
2023/03/20 02:08:24;;;;;;;9.40;8.20;;;;;;;9.19;59.92;102062.95;106956;1269;24236;-50
2023/03/20 02:10:53;;;;;;;8.70;7.80;;;;;;;9.20;59.87;102061.91;107069;1269;22645;-49
2023/03/20 02:13:27;;;;;;;10.60;9.50;;;;;;;9.19;59.88;102061.21;106051;1272;1002926;-49
2023/03/20 02:16:09;;;;;;;8.50;7.60;;;;;;;9.18;59.69;102058.27;106857;1272;22640;-50
2023/03/20 02:18:55;;;;;;;8.90;7.90;;;;;;;9.16;59.71;102059.98;106761;1270;25389;-50
2023/03/20 02:22:00;;;;;;;9.40;8.40;;;;;;;9.14;59.70;102058.25;106917;1269;22520;-50
2023/03/20 02:24:54;;;;;;;9.30;8.40;;;;;;;9.12;59.76;102061.88;106407;1275;22539;-50
2023/03/20 02:28:08;;;;;;;9.60;8.60;;;;;;;9.09;59.66;102070.00;106553;1275;22527;-50
2023/03/20 02:30:46;;;;;;;9.20;8.00;;;;;;;9.10;59.61;102066.20;106515;1275;24208;-50
2023/03/20 02:34:01;;;;;;;10.70;8.70;;;;;;;9.09;59.86;102065.84;106533;1275;25491;-49
2023/03/20 02:36:42;;;;;;;9.20;8.20;;;;;;;9.13;59.69;102068.11;105646;1286;24227;-48
2023/03/20 02:39:38;;;;;;;10.50;8.10;;;;;;;9.14;59.41;102071.23;105681;1285;25387;-50
2023/03/20 02:42:29;;;;;;;10.00;8.80;;;;;;;9.14;59.49;102065.52;105670;1286;24226;-49
2023/03/20 02:45:21;;;;;;;10.90;8.30;;;;;;;9.17;59.39;102068.48;105626;1287;22593;-49
2023/03/20 02:48:07;;;;;;;10.50;9.30;;;;;;;9.18;59.29;102067.27;105677;1286;25359;-49
2023/03/20 02:50:39;;;;;;;10.10;7.90;;;;;;;9.22;59.34;102063.30;105666;1286;22549;-48
2023/03/20 02:53:35;;;;;;;9.60;8.50;;;;;;;9.24;59.19;102063.67;105638;1286;24228;-49
2023/03/20 02:56:24;;;;;;;8.80;7.90;;;;;;;9.24;59.04;102063.67;105653;1286;24401;-50
2023/03/20 02:59:14;;;;;;;9.30;8.30;;;;;;;9.24;59.12;102061.94;105663;1286;22548;-49
2023/03/20 03:01:46;;;;;;;9.00;8.20;;;;;;;9.28;59.17;102063.86;105809;1283;24401;-49
2023/03/20 03:04:22;;;;;;;9.40;8.40;;;;;;;9.33;59.00;102063.89;105953;1283;24230;-49
2023/03/20 03:06:54;;;;;;;9.90;8.20;;;;;;;9.38;58.86;102063.56;105839;1281;25526;-49
2023/03/20 03:09:26;;;;;;;10.00;8.90;;;;;;;9.40;58.88;102067.20;105881;1283;25403;-49
2023/03/20 03:12:00;;;;;;;12.30;8.30;;;;;;;9.42;58.63;102072.40;105889;1284;25612;-49
2023/03/20 03:14:40;;;;;;;9.70;7.90;;;;;;;9.42;58.67;102069.11;106595;1276;22586;-49
2023/03/20 03:17:14;;;;;;;9.80;7.60;;;;;;;9.42;58.41;102069.80;106822;1270;22576;-48
2023/03/20 03:19:47;;;;;;;8.20;7.40;;;;;;;9.40;58.12;102068.94;106771;1272;24720;-50
2023/03/20 03:22:15;;;;;;;10.80;7.70;;;;;;;9.36;57.87;102066.49;106793;1272;25251;-48
2023/03/20 03:24:46;;;;;;;8.90;7.80;;;;;;;9.32;57.88;102065.62;106857;1269;25290;-49
2023/03/20 03:27:20;;;;;;;9.00;7.80;;;;;;;9.31;57.84;102067.52;106896;1270;24262;-49
2023/03/20 03:29:52;;;;;;;9.70;8.10;;;;;;;9.31;57.90;102067.34;107114;1269;22648;-49
2023/03/20 03:32:25;;;;;;;;;;;;;;;9.27;58.01;102069.23;106838;1270;22511;-49
2023/03/20 03:34:53;;;;;;;9.10;8.00;;;;;;;9.23;58.40;102067.12;106849;1270;26128;-49
2023/03/20 03:37:34;;;;;;;8.30;7.10;;;;;;;9.20;58.48;102070.57;107048;1269;25563;-49
2023/03/20 03:40:23;;;;;;;10.80;8.70;;;;;;;9.20;58.66;102065.21;106993;1268;25429;-49
2023/03/20 03:43:03;;;;;;;9.30;8.00;;;;;;;9.21;58.56;102067.81;107044;1268;22681;-48
2023/03/20 03:45:35;;;;;;;8.60;7.50;;;;;;;9.22;58.46;102063.48;106920;1268;24238;-49
2023/03/20 03:48:22;;;;;;;;;;;;;;;9.23;58.25;102062.29;107109;1269;22619;-48
2023/03/20 03:50:53;;;;;;;9.30;8.20;;;;;;;9.21;58.26;102051.88;106789;1270;22531;-49
2023/03/20 03:53:29;;;;;;;8.20;7.40;;;;;;;9.18;58.31;102049.80;106950;1270;25353;-50
2023/03/20 03:56:00;;;;;;;9.20;7.80;;;;;;;9.19;58.39;102049.61;106126;1272;1003761;-50
2023/03/20 03:58:41;;;;;;;9.00;7.70;;;;;;;9.18;58.44;102045.80;106728;1269;25414;-49
2023/03/20 04:01:12;;;;;;;8.80;7.70;;;;;;;9.16;58.41;102043.89;107006;1270;22535;-50
2023/03/20 04:03:53;;;;;;;12.50;8.80;;;;;;;9.13;58.47;102038.00;107035;1269;25361;-48
2023/03/20 04:06:22;;;;;;;8.50;7.70;;;;;;;9.10;58.43;102035.04;106847;1258;23847;-50
2023/03/20 04:08:51;;;;;;;10.30;8.90;;;;;;;9.08;58.58;102034.86;106765;1273;25363;-49
2023/03/20 04:11:21;;;;;;;12.40;7.90;;;;;;;9.07;58.74;102031.56;106830;1276;25335;-50
2023/03/20 04:13:51;;;;;;;10.20;9.20;;;;;;;9.04;58.75;102034.84;106822;1269;25353;-49
2023/03/20 04:16:21;;;;;;;10.40;9.10;;;;;;;9.01;58.69;102036.39;106717;1272;25481;-49
2023/03/20 04:18:55;;;;;;;9.40;8.40;;;;;;;9.01;58.80;102042.61;106839;1270;25338;-49
2023/03/20 04:21:24;;;;;;;10.70;8.70;;;;;;;9.02;59.06;102045.05;106432;1269;1002978;-49
2023/03/20 04:23:53;;;;;;;9.20;8.30;;;;;;;9.04;59.15;102048.16;107054;1263;26500;-49
2023/03/20 04:26:23;;;;;;;10.40;8.70;;;;;;;9.05;59.15;102048.34;106859;1269;25362;-49
2023/03/20 04:28:52;;;;;;;9.80;8.70;;;;;;;9.06;59.27;102055.27;106959;1269;22529;-49
2023/03/20 04:31:41;;;;;;;9.90;8.50;;;;;;;9.09;59.15;102060.64;107031;1268;25338;-49
2023/03/20 04:34:31;;;;;;;8.90;8.00;;;;;;;9.11;59.11;102058.58;106832;1269;25360;-49
2023/03/20 04:37:09;;;;;;;9.70;8.70;;;;;;;9.10;59.11;102058.75;106939;1269;25334;-49
2023/03/20 04:40:05;;;;;;;10.00;8.20;;;;;;;9.09;59.26;102064.10;106749;1275;26564;-48
2023/03/20 04:42:33;;;;;;;9.50;8.60;;;;;;;9.10;59.30;102065.34;106815;1270;24451;-49
2023/03/20 04:45:06;;;;;;;9.70;8.70;;;;;;;9.07;59.49;102063.59;107056;1269;22513;-50
2023/03/20 04:47:37;;;;;;;;;;;;;;;9.06;59.80;102064.80;106850;1272;25466;-48
2023/03/20 04:50:06;;;;;;;10.30;8.30;;;;;;;9.06;59.92;102065.83;106968;1269;25366;-49
2023/03/20 04:52:36;;;;;;;10.40;8.10;;;;;;;9.06;59.92;102066.52;107009;1269;22541;-50
2023/03/20 04:55:06;;;;;;;9.50;8.40;;;;;;;9.05;59.90;102066.17;106754;1276;25427;-49
2023/03/20 04:57:35;;;;;;;9.50;8.10;;;;;;;9.04;60.16;102069.80;106998;1269;25444;-49
2023/03/20 05:00:05;;;;;;;8.90;7.90;;;;;;;9.05;60.10;102066.70;106859;1272;25341;-49
2023/03/20 05:02:34;;;;;;;10.50;8.20;;;;;;;9.04;60.07;102067.55;106814;1272;22625;-49
2023/03/20 05:05:04;;;;;;;10.50;9.10;;;;;;;9.04;60.12;102069.46;106913;1269;25405;-48
2023/03/20 05:07:41;;;;;;;9.00;8.10;;;;;;;9.03;60.19;102070.15;106841;1269;25447;-50
2023/03/20 05:10:14;;;;;;;9.90;8.60;;;;;;;9.06;60.20;102073.27;107013;1269;25362;-49
2023/03/20 05:12:55;;;;;;;9.20;8.10;;;;;;;9.07;59.95;102075.53;106783;1272;25342;-49
2023/03/20 05:15:25;;;;;;;11.10;8.60;;;;;;;9.05;59.68;102076.73;106864;1269;25482;-49
2023/03/20 05:18:12;;;;;;;11.20;9.10;;;;;;;9.00;59.70;102080.16;107021;1269;25520;-48
2023/03/20 05:21:17;;;;;;;10.60;9.30;;;;;;;8.98;59.52;102085.34;106789;1269;23341;-49
2023/03/20 05:23:49;;;;;;;11.40;9.50;;;;;;;8.94;59.39;102089.83;106985;1269;25338;-49
2023/03/20 05:26:36;;;;;;;10.50;9.40;;;;;;;8.92;59.38;102091.54;107005;1269;25359;-48
2023/03/20 05:29:14;;;;;;;11.00;9.10;;;;;;;8.89;59.33;102091.68;107049;1269;25436;-49
2023/03/20 05:31:58;;;;;;;10.70;9.50;;;;;;;8.86;59.42;102088.56;107045;1269;22517;-48
2023/03/20 05:34:37;;;;;;;11.90;9.40;;;;;;;8.84;59.52;102082.84;107057;1269;25350;-50
2023/03/20 05:37:12;;;;;;;12.10;9.20;;;;;;;8.84;59.59;102083.55;107000;1253;25363;-50
2023/03/20 05:40:08;;;;;;;11.10;9.80;;;;;;;8.85;59.40;102084.06;106667;1269;23468;-49
2023/03/20 05:42:51;;;;;;;11.30;9.40;;;;;;;8.85;59.61;102082.51;106770;1268;24528;-49
2023/03/20 05:45:41;;;;;;;11.30;10.10;;;;;;;8.87;59.51;102089.43;107074;1269;25340;-49
2023/03/20 05:48:33;;;;;;;12.10;10.30;;;;;;;8.91;59.38;102097.77;106942;1269;25415;-49
2023/03/20 05:51:34;;;;;;;11.70;10.20;;;;;;;8.96;59.52;102107.31;106870;1272;25522;-49
2023/03/20 05:54:24;;;;;;;10.70;9.20;;;;;;;9.03;59.54;102113.24;106981;1269;25353;-49
2023/03/20 05:57:18;;;;;;;11.70;10.40;;;;;;;9.09;59.42;102111.20;106303;1269;1015413;-49
2023/03/20 05:59:53;;;;;;;11.20;9.60;;;;;;;9.13;59.27;102110.52;107062;1269;25328;-48
2023/03/20 06:02:40;;;;;;;11.80;9.60;;;;;;;9.19;59.17;102112.80;107040;1269;25322;-48
2023/03/20 06:05:24;;;;;;;10.60;9.10;;;;;;;9.28;59.03;102117.54;106099;1269;1003056;-48
2023/03/20 06:07:53;;;;;;;11.20;10.00;;;;;;;9.39;59.11;102123.83;107010;1269;24268;-49
2023/03/20 06:10:28;;;;;;;10.80;9.70;;;;;;;9.52;58.70;102127.70;107016;1269;25028;-49
2023/03/20 06:12:59;;;;;;;10.90;9.80;;;;;;;9.66;58.55;102123.94;106627;1269;1003451;-49
2023/03/20 06:15:29;;;;;;;10.10;9.10;;;;;;;9.78;58.27;102116.89;106878;1256;25331;-49
2023/03/20 06:18:04;;;;;;;10.90;9.80;;;;;;;10.00;58.03;102119.71;107138;1269;25337;-49
2023/03/20 06:20:34;;;;;;;9.90;8.90;;;;;;;10.25;57.57;102116.49;106992;1268;25347;-49
2023/03/20 06:23:03;;;;;;;9.50;8.60;;;;;;;10.43;56.75;102113.22;107012;1268;24336;-49
2023/03/20 06:25:33;;;;;;;11.10;9.50;;;;;;;10.51;56.36;102112.70;106815;1268;25353;-48
2023/03/20 06:28:03;;;;;;;10.50;9.40;;;;;;;10.67;56.09;102115.30;106035;1273;1003509;-48
2023/03/20 06:30:39;;;;;;;10.40;9.40;;;;;;;10.92;55.43;102118.40;106921;1270;25515;-48
2023/03/20 06:33:09;;;;;;;10.70;8.90;;;;;;;11.14;54.81;102115.40;107022;1269;22621;-48
2023/03/20 06:35:49;;;;;;;10.70;9.60;;;;;;;11.31;54.10;102116.05;106982;1254;25560;-48
2023/03/20 06:38:19;;;;;;;10.20;9.10;;;;;;;11.35;53.50;102123.31;106822;1269;22545;-48
2023/03/20 06:40:48;;;;;;;10.20;9.20;;;;;;;11.34;53.09;102126.45;106811;1256;22522;-48
2023/03/20 06:43:23;;;;;;;10.40;9.30;;;;;;;11.36;53.03;102121.92;106996;1268;25488;-49
2023/03/20 06:45:52;;;;;;;10.70;9.60;;;;;;;11.46;52.81;102125.03;107147;1268;26520;-48
2023/03/20 06:48:28;;;;;;;10.80;9.30;;;;;;;11.61;52.62;102130.54;107112;1270;25347;-49
2023/03/20 06:50:57;;;;;;;10.70;9.60;;;;;;;11.84;52.34;102129.94;106788;1270;25350;-48
2023/03/20 06:53:31;;;;;;;10.30;9.00;;;;;;;12.02;51.58;102130.70;106799;1272;25341;-47
2023/03/20 06:56:05;;;;;;;10.90;9.70;;;;;;;12.05;51.13;102124.77;107067;1269;25344;-47
2023/03/20 06:58:33;;;;;;;10.10;9.00;;;;;;;12.08;50.88;102121.98;106878;1270;22528;-48
2023/03/20 07:01:15;;;;;;;10.30;9.30;;;;;;;12.05;50.70;102127.02;107007;1269;25411;-47
2023/03/20 07:03:45;;;;;;;10.20;9.10;;;;;;;12.06;50.91;102126.33;106887;1269;22584;-48
2023/03/20 07:06:15;;;;;;;10.20;9.20;;;;;;;12.13;50.61;102121.07;106859;1268;23237;-48
2023/03/20 07:08:45;;;;;;;9.90;8.90;;;;;;;12.12;50.24;102122.11;106932;1270;22523;-49
2023/03/20 07:11:14;;;;;;;11.00;9.90;;;;;;;12.07;50.31;102118.15;106785;1270;22520;-48
2023/03/20 07:13:49;;;;;;;9.80;8.70;;;;;;;12.04;50.19;102115.90;106949;1257;22535;-48
2023/03/20 07:16:40;;;;;;;9.20;8.30;;;;;;;12.04;50.17;102112.25;107046;1269;25361;-48
2023/03/20 07:19:10;;;;;;;10.40;9.30;;;;;;;12.02;49.96;102109.84;106847;1269;22641;-48
2023/03/20 07:21:43;;;;;;;12.50;9.80;;;;;;;11.89;50.00;102106.44;106787;1272;25233;-49
2023/03/20 07:24:12;;;;;;;10.20;9.20;;;;;;;11.80;50.31;102107.52;106298;1269;1003200;-49
2023/03/20 07:26:41;;;;;;;11.20;10.00;;;;;;;11.77;50.60;102108.58;106792;1272;25654;-47
2023/03/20 07:29:09;;;;;;;11.20;10.00;;;;;;;11.76;50.62;102108.77;106808;1269;25478;-48
2023/03/20 07:31:38;;;;;;;10.40;9.30;;;;;;;11.71;50.69;102108.79;107030;1269;25338;-48
2023/03/20 07:34:25;;;;;;;10.70;9.60;;;;;;;11.71;50.90;102109.14;106964;1268;25415;-48
2023/03/20 07:36:55;;;;;;;9.90;8.80;;;;;;;11.73;51.00;102107.91;106826;1270;22737;-48
2023/03/20 07:39:24;;;;;;;10.30;9.40;;;;;;;11.71;50.92;102104.61;106824;1269;25328;-49
2023/03/20 07:42:01;;;;;;;11.40;10.20;;;;;;;11.64;51.01;102104.11;106760;1275;22643;-48
2023/03/20 07:44:42;;;;;;;12.50;9.90;;;;;;;11.46;51.13;102096.17;106857;1275;22514;-49
2023/03/20 07:47:12;;;;;;;10.90;9.70;;;;;;;11.29;51.67;102100.59;106375;1269;1003080;-48
2023/03/20 07:49:41;;;;;;;10.20;9.20;;;;;;;11.20;52.09;102095.76;107089;1269;25338;-49
2023/03/20 07:52:16;;;;;;;11.30;9.90;;;;;;;11.16;52.42;102092.64;106307;1269;1003134;-48
2023/03/20 07:54:44;;;;;;;11.40;10.30;;;;;;;11.12;52.61;102087.96;106147;1268;1003548;-48
2023/03/20 07:57:15;;;;;;;11.60;10.00;;;;;;;11.12;52.84;102087.96;106766;1270;26493;-49
2023/03/20 07:59:45;;;;;;;10.40;9.40;;;;;;;11.15;52.95;102095.95;107014;1269;25338;-48
2023/03/20 08:02:15;;;;;;;10.80;9.70;;;;;;;11.18;52.76;102100.10;106088;1272;1003434;-48
2023/03/20 08:04:49;;;;;;;9.90;8.90;;;;;;;11.18;52.62;102101.14;106943;1269;25363;-50
2023/03/20 08:07:20;;;;;;;10.30;9.20;;;;;;;11.18;52.62;102100.45;106944;1269;25350;-49
2023/03/20 08:09:49;;;;;;;10.20;9.20;;;;;;;11.21;52.62;102109.48;107033;1275;26682;-48
2023/03/20 08:12:18;;;;;;;10.80;9.30;;;;;;;11.24;52.35;102110.33;106803;1272;25353;-48
2023/03/20 08:14:48;;;;;;;9.00;8.10;;;;;;;11.29;52.21;102110.31;107044;1269;26503;-49
2023/03/20 08:17:17;;;;;;;9.20;8.20;;;;;;;11.32;52.04;102114.30;106941;1269;25320;-48
2023/03/20 08:19:49;;;;;;;9.40;8.50;;;;;;;11.33;51.97;102114.64;107007;1269;22640;-48
2023/03/20 08:22:17;;;;;;;9.50;8.50;;;;;;;11.35;51.46;102120.04;107068;1269;25533;-48
2023/03/20 08:24:45;;;;;;;9.50;8.60;;;;;;;11.32;51.39;102114.48;106753;1275;25328;-48
2023/03/20 08:27:16;;;;;;;10.10;9.00;;;;;;;11.30;51.48;102113.96;107042;1268;25332;-48
2023/03/20 08:29:45;;;;;;;9.50;8.50;;;;;;;11.29;51.53;102114.98;107070;1269;25408;-48
2023/03/20 08:32:13;;;;;;;11.00;9.80;;;;;;;11.29;51.47;102115.02;107065;1269;24313;-48
2023/03/20 08:34:42;;;;;;;11.00;9.40;;;;;;;11.28;51.64;102113.46;106253;1269;1002847;-49
2023/03/20 08:37:12;;;;;;;10.20;9.10;;;;;;;11.30;51.52;102109.96;106845;1272;24050;-49
2023/03/20 08:39:43;;;;;;;10.80;9.00;;;;;;;11.34;51.45;102111.86;106316;1270;1004140;-48
2023/03/20 08:42:11;;;;;;;9.70;8.70;;;;;;;11.38;51.67;102115.67;107103;1268;25341;-48
2023/03/20 08:44:47;;;;;;;10.10;9.10;;;;;;;11.46;51.62;102118.42;106761;1275;25359;-48
2023/03/20 08:47:15;;;;;;;10.70;9.10;;;;;;;11.56;51.10;102117.52;106813;1270;25777;-48
2023/03/20 08:49:43;;;;;;;10.30;9.30;;;;;;;11.63;51.02;102112.10;107017;1269;25346;-48
2023/03/20 08:52:12;;;;;;;10.80;9.30;;;;;;;11.71;50.74;102116.44;107084;1269;25459;-48
2023/03/20 08:54:41;;;;;;;10.60;9.50;;;;;;;11.80;50.72;102112.73;107058;1269;25336;-48
2023/03/20 08:57:11;;;;;;;11.10;9.80;;;;;;;11.89;50.61;102113.21;106999;1269;25363;-48
2023/03/20 08:59:40;;;;;;;10.60;9.40;;;;;;;11.98;50.24;102114.20;107063;1268;22862;-49
2023/03/20 09:02:10;;;;;;;10.00;9.00;;;;;;;12.06;50.00;102111.02;107110;1261;24497;-48
2023/03/20 09:04:39;;;;;;;10.00;9.00;;;;;;;12.18;50.05;102109.37;107099;1269;22529;-48
2023/03/20 09:07:07;;;;;;;10.10;9.10;;;;;;;12.31;50.05;102108.07;107006;1269;25409;-49
2023/03/20 09:09:36;;;;;;;9.30;7.90;;;;;;;12.45;50.21;102099.95;106784;1270;22597;-48
2023/03/20 09:12:06;;;;;;;10.80;8.90;;;;;;;12.59;50.29;102100.01;107059;1269;25325;-48
2023/03/20 09:14:37;;;;;;;10.00;8.90;;;;;;;12.74;49.93;102097.77;107092;1270;22661;-49
2023/03/20 09:17:05;;;;;;;9.80;8.80;;;;;;;12.89;49.48;102096.06;107003;1268;24216;-48
2023/03/20 09:19:38;;;;;;;10.10;9.00;;;;;;;13.02;49.03;102101.34;106741;1270;25402;-49
2023/03/20 09:22:07;;;;;;;9.90;8.90;;;;;;;13.17;49.11;102096.34;106772;1272;25417;-49
2023/03/20 09:24:35;;;;;;;10.80;9.70;;;;;;;13.31;48.76;102090.27;106936;1269;24333;-49
2023/03/20 09:27:04;;;;;;;10.40;9.30;;;;;;;13.43;48.26;102089.40;107045;1269;25328;-49
2023/03/20 09:29:32;;;;;;;10.40;9.30;;;;;;;13.50;48.10;102092.62;106960;1269;22566;-49
2023/03/20 09:32:01;;;;;;;10.00;9.10;;;;;;;13.54;47.85;102092.57;107051;1269;25335;-49
2023/03/20 09:34:30;;;;;;;9.80;8.90;;;;;;;13.55;47.72;102090.12;107057;1269;25337;-49
2023/03/20 09:37:01;;;;;;;10.80;9.80;;;;;;;13.55;47.45;102090.66;106983;1269;22519;-49
2023/03/20 09:39:29;;;;;;;9.30;8.30;;;;;;;13.53;47.47;102090.48;107000;1269;24336;-49
2023/03/20 09:42:02;;;;;;;9.40;8.50;;;;;;;13.51;47.48;102092.79;107066;1269;24216;-49
2023/03/20 09:44:51;;;;;;;10.10;9.00;;;;;;;13.49;47.39;102095.76;107030;1269;25352;-48
2023/03/20 09:47:39;;;;;;;9.70;8.30;;;;;;;13.49;47.19;102096.47;106778;1272;23613;-49
2023/03/20 09:50:28;;;;;;;10.20;8.80;;;;;;;13.47;47.20;102094.74;106765;1272;22666;-49
2023/03/20 09:53:17;;;;;;;9.20;8.20;;;;;;;13.46;47.28;102092.48;106707;1272;22717;-49
2023/03/20 09:55:46;;;;;;;9.00;8.10;;;;;;;13.46;47.28;102093.02;105635;1273;1003638;-48
2023/03/20 09:58:22;;;;;;;9.00;8.10;;;;;;;13.46;47.25;102092.31;106727;1272;25380;-48
2023/03/20 10:01:00;;;;;;;9.40;8.40;;;;;;;13.47;47.09;102092.84;106406;1275;25411;-48
2023/03/20 10:03:52;;;;;;;9.30;8.30;;;;;;;13.48;47.15;102093.17;106328;1277;25379;-49
2023/03/20 10:06:21;;;;;;;9.40;8.40;;;;;;;13.49;47.28;102089.66;106606;1272;24205;-49
2023/03/20 10:08:54;;;;;;;9.10;8.10;;;;;;;13.52;47.33;102091.20;105966;1272;1002539;-49
2023/03/20 10:11:47;;;;;;;9.00;8.00;;;;;;;13.56;47.13;102088.38;106315;1273;24320;-49
2023/03/20 10:14:43;;;;;;;10.10;8.50;;;;;;;13.60;46.80;102077.67;106661;1273;25488;-49
2023/03/20 10:17:47;;;;;;;9.80;8.20;;;;;;;13.60;46.71;102075.58;106449;1273;25332;-49
2023/03/20 10:20:34;;;;;;;9.00;7.70;;;;;;;13.59;46.63;102069.84;105965;1273;1002724;-48
2023/03/20 10:23:30;;;;;;;8.20;7.00;;;;;;;13.58;46.80;102069.17;106341;1273;25259;-48
2023/03/20 10:26:02;;;;;;;10.40;8.00;;;;;;;13.57;46.89;102070.22;106750;1270;22521;-49
2023/03/20 10:29:31;;;;;;;8.80;7.80;;;;;;;13.56;47.09;102065.18;107086;1270;24248;-49
2023/03/20 10:32:23;;;;;;;8.30;7.50;;;;;;;13.58;47.11;102062.02;107065;1275;22530;-49
2023/03/20 10:35:21;;;;;;;8.50;7.70;;;;;;;13.57;47.11;102057.13;105647;1276;1003835;-49
2023/03/20 10:38:18;;;;;;;8.30;7.50;;;;;;;13.57;47.01;102050.69;105455;1281;1003066;-49
2023/03/20 10:40:46;;;;;;;9.00;7.90;;;;;;;13.56;47.23;102048.79;105851;1287;25441;-49
2023/03/20 10:43:23;;;;;;;7.90;7.20;;;;;;;13.56;47.05;102048.27;105956;1286;25889;-48
2023/03/20 10:46:12;;;;;;;13.10;7.70;;;;;;;13.54;46.90;102042.71;106056;1281;23018;-48
2023/03/20 10:48:49;;;;;;;8.50;7.60;;;;;;;13.49;46.90;102041.20;106060;1287;22543;-49
2023/03/20 10:51:20;;;;;;;8.60;7.60;;;;;;;13.43;47.13;102035.71;105962;1287;22544;-48
2023/03/20 10:53:54;;;;;;;8.40;7.40;;;;;;;13.40;46.94;102033.14;106114;1281;24242;-48
2023/03/20 10:56:36;;;;;;;9.20;7.70;;;;;;;13.38;46.96;102034.04;106083;1281;22536;-48
2023/03/20 10:59:23;;;;;;;9.30;8.30;;;;;;;13.38;47.24;102027.59;105976;1284;22671;-47
2023/03/20 11:01:53;;;;;;;8.00;7.20;;;;;;;13.38;47.16;102025.14;105232;1275;1003125;-48
2023/03/20 11:04:22;;;;;;;7.40;6.60;;;;;;;13.38;46.86;102020.61;105900;1278;1002938;-49
2023/03/20 11:07:02;;;;;;;8.10;7.20;;;;;;;13.39;46.91;102016.08;106629;1269;23239;-48
2023/03/20 11:09:32;;;;;;;9.60;7.00;;;;;;;13.39;46.86;102015.36;106562;1275;22791;-48
2023/03/20 11:12:01;;;;;;;10.10;7.70;;;;;;;13.39;46.83;102014.50;106479;1264;24384;-48
2023/03/20 11:14:38;;;;;;;8.20;7.40;;;;;;;13.42;46.98;102014.98;106763;1267;25366;-48
2023/03/20 11:17:08;;;;;;;7.70;6.90;;;;;;;13.43;46.94;102012.00;107058;1268;24246;-48
2023/03/20 11:19:38;;;;;;;8.40;7.60;;;;;;;13.44;46.82;102010.41;106160;1266;1003861;-47
2023/03/20 11:22:25;;;;;;;8.40;7.50;;;;;;;13.43;47.05;102009.73;107033;1276;25546;-48
2023/03/20 11:24:55;;;;;;;8.50;7.50;;;;;;;13.42;47.12;102010.61;107586;1270;24295;-48
2023/03/20 11:27:27;;;;;;;8.80;7.90;;;;;;;13.42;47.25;102008.70;107013;1269;24262;-48
2023/03/20 11:30:01;;;;;;;7.80;7.00;;;;;;;13.42;47.24;102009.74;107125;1269;24184;-48
2023/03/20 11:32:31;;;;;;;7.70;6.80;;;;;;;13.40;47.28;102001.41;106684;1276;24256;-48
2023/03/20 11:35:24;;;;;;;8.30;7.50;;;;;;;13.40;47.62;101998.44;106992;1269;25335;-48
2023/03/20 11:37:54;;;;;;;9.30;7.80;;;;;;;13.37;47.52;101993.95;106980;1272;22523;-49
2023/03/20 11:40:30;;;;;;;8.50;7.70;;;;;;;13.37;47.71;101989.61;107052;1270;24349;-49
2023/03/20 11:43:01;;;;;;;8.90;7.70;;;;;;;13.36;47.67;101985.44;106664;1270;239383;-49
2023/03/20 11:45:33;;;;;;;;;;;;;;;13.34;47.83;101981.63;106950;1270;22874;-49
2023/03/20 11:48:04;;;;;;;7.90;6.80;;;;;;;13.32;48.16;101979.74;106995;1270;25360;-49
2023/03/20 11:50:35;;;;;;;9.90;7.10;;;;;;;13.31;48.17;101981.52;106866;1271;22517;-50
2023/03/20 11:53:19;;;;;;;9.70;7.40;;;;;;;13.31;48.42;101983.42;107010;1270;24278;-49